Time;durP1;ratioP1;P1;durP2;ratioP2;P2;SDS_P1;SDS_P2;PMS_P1;PMS_P2;Temp;Humidity;BMP_temperature;BMP_pressure;BME280_temperature;BME280_humidity;BME280_pressure;Samples;Min_cycle;Max_cycle;Signal;HPM_P1;HPM_P2
2021/12/14 00:00:16;;;;;;;2.88;1.80;;;14.90;29.10;;;;;;5059173;28;20208;-74
2021/12/14 00:02:43;;;;;;;1.90;1.80;;;14.90;29.20;;;;;;5059212;28;20312;-74
2021/12/14 00:05:12;;;;;;;2.08;1.88;;;14.90;29.10;;;;;;5058919;28;20205;-74
2021/12/14 00:07:41;;;;;;;1.80;1.70;;;14.90;29.10;;;;;;5059190;28;20228;-74
2021/12/14 00:10:27;;;;;;;1.70;1.60;;;14.90;29.20;;;;;;5059450;28;20229;-75
2021/12/14 00:12:59;;;;;;;1.88;1.77;;;14.90;29.10;;;;;;5059283;28;20205;-74
2021/12/14 00:15:30;;;;;;;2.03;1.77;;;14.90;29.10;;;;;;5059250;28;20557;-74
2021/12/14 00:18:01;;;;;;;1.90;1.80;;;14.90;29.20;;;;;;5063101;28;20211;-74
2021/12/14 00:20:36;;;;;;;1.80;1.70;;;14.90;29.20;;;;;;5078615;28;20212;-74
2021/12/14 00:25:54;;;;;;;2.08;1.77;;;14.90;29.20;;;;;;5078565;28;20626;-73
2021/12/14 00:28:24;;;;;;;1.65;1.55;;;14.90;29.20;;;;;;5078774;28;20589;-74
2021/12/14 00:30:53;;;;;;;1.95;1.75;;;14.90;29.10;;;;;;5078767;28;20228;-74
2021/12/14 00:33:22;;;;;;;1.80;1.70;;;14.90;29.20;;;;;;5079084;28;20215;-74
2021/12/14 00:35:51;;;;;;;1.80;1.70;;;14.90;29.20;;;;;;5079400;28;20204;-74
2021/12/14 00:38:22;;;;;;;1.70;1.60;;;14.90;29.20;;;;;;5079092;28;20254;-74
2021/12/14 00:40:53;;;;;;;1.88;1.77;;;14.90;29.20;;;;;;5079057;28;20200;-74
2021/12/14 00:43:21;;;;;;;2.80;1.70;;;14.90;29.20;;;;;;5078726;28;20212;-74
2021/12/14 00:45:49;;;;;;;1.60;1.50;;;14.90;29.20;;;;;;5078703;28;20196;-74
2021/12/14 00:48:17;;;;;;;2.10;1.65;;;14.90;29.20;;;;;;5078210;28;20224;-75
2021/12/14 00:50:48;;;;;;;1.63;1.52;;;14.90;29.20;;;;;;5078339;28;20243;-74
2021/12/14 00:53:15;;;;;;;2.00;1.88;;;14.80;29.20;;;;;;5077781;28;20204;-74
2021/12/14 00:55:50;;;;;;;1.40;1.30;;;14.80;29.10;;;;;;5077349;28;20226;-74
2021/12/14 00:58:18;;;;;;;1.90;1.80;;;14.80;29.10;;;;;;5078338;28;20204;-74
2021/12/14 01:00:48;;;;;;;1.60;1.50;;;14.80;29.20;;;;;;5078912;28;20477;-74
2021/12/14 01:03:15;;;;;;;1.65;1.55;;;14.80;29.20;;;;;;5078361;28;20211;-74
2021/12/14 01:05:46;;;;;;;1.63;1.52;;;14.80;29.10;;;;;;5078256;28;20204;-74
2021/12/14 01:08:18;;;;;;;1.95;1.83;;;14.80;29.10;;;;;;5078035;28;20232;-74
2021/12/14 01:10:51;;;;;;;1.95;1.60;;;14.80;29.10;;;;;;5078327;28;20235;-74
2021/12/14 01:13:23;;;;;;;1.80;1.70;;;14.80;29.20;;;;;;5077883;28;20196;-74
2021/12/14 01:16:00;;;;;;;2.00;1.80;;;14.80;29.10;;;;;;5077656;28;20224;-74
2021/12/14 01:18:44;;;;;;;1.70;1.60;;;14.80;29.10;;;;;;5077527;28;20586;-74
2021/12/14 01:21:21;;;;;;;1.73;1.40;;;14.80;29.10;;;;;;5077940;28;20533;-74
2021/12/14 01:23:59;;;;;;;1.65;1.55;;;14.80;29.20;;;;;;5078173;28;20207;-74
2021/12/14 01:26:30;;;;;;;1.75;1.65;;;14.80;29.20;;;;;;5078081;28;20282;-75
2021/12/14 01:28:58;;;;;;;1.60;1.50;;;14.80;29.20;;;;;;5077980;28;20205;-74
2021/12/14 01:31:30;;;;;;;1.50;1.40;;;14.80;29.20;;;;;;5078181;28;20228;-74
2021/12/14 01:34:01;;;;;;;1.40;1.30;;;14.80;29.20;;;;;;5078363;28;20205;-74
2021/12/14 01:36:36;;;;;;;1.75;1.50;;;14.80;29.20;;;;;;5077720;28;20212;-74
2021/12/14 01:39:23;;;;;;;1.50;1.40;;;14.80;29.20;;;;;;5077963;28;20204;-74
2021/12/14 01:41:56;;;;;;;1.60;1.50;;;14.80;29.20;;;;;;5062370;28;20295;-74
2021/12/14 01:44:25;;;;;;;1.58;1.48;;;14.80;29.20;;;;;;5077861;28;20602;-74
2021/12/14 01:46:57;;;;;;;1.40;1.30;;;14.70;29.10;;;;;;5077770;28;20212;-74
2021/12/14 01:49:26;;;;;;;2.03;1.50;;;14.80;29.20;;;;;;5077864;28;20215;-74
2021/12/14 01:51:57;;;;;;;1.70;1.60;;;14.70;29.20;;;;;;5077527;28;20623;-74
2021/12/14 01:54:28;;;;;;;1.60;1.50;;;14.70;29.20;;;;;;5077532;28;20274;-74
2021/12/14 01:56:57;;;;;;;1.88;1.60;;;14.70;29.10;;;;;;5077758;28;20215;-74
2021/12/14 01:59:33;;;;;;;1.40;1.30;;;14.70;29.10;;;;;;5077814;28;20500;-74
2021/12/14 02:02:18;;;;;;;1.77;1.58;;;14.70;29.20;;;;;;5077389;28;20211;-74
2021/12/14 02:04:47;;;;;;;2.05;1.50;;;14.70;29.20;;;;;;5077777;28;20204;-74
2021/12/14 02:07:16;;;;;;;1.50;1.40;;;14.70;29.20;;;;;;5076943;28;20220;-74
2021/12/14 02:09:45;;;;;;;1.70;1.60;;;14.70;29.20;;;;;;5077558;28;20231;-74
2021/12/14 02:12:16;;;;;;;1.60;1.50;;;14.70;29.20;;;;;;5077505;28;20228;-74
2021/12/14 02:14:44;;;;;;;1.75;1.65;;;14.70;29.20;;;;;;5077361;28;20204;-74
2021/12/14 02:17:15;;;;;;;1.50;1.40;;;14.70;29.20;;;;;;5077460;28;20228;-74
2021/12/14 02:19:43;;;;;;;1.42;1.33;;;14.70;29.20;;;;;;5077586;28;20637;-74
2021/12/14 02:22:12;;;;;;;1.48;1.38;;;14.70;29.20;;;;;;5077697;28;20459;-74
2021/12/14 02:24:43;;;;;;;1.30;1.20;;;14.70;29.20;;;;;;5077549;28;20204;-74
2021/12/14 02:27:10;;;;;;;1.50;1.40;;;14.70;29.20;;;;;;5077599;28;20223;-75
2021/12/14 02:29:41;;;;;;;1.63;1.52;;;14.70;29.20;;;;;;5077505;28;20204;-74
2021/12/14 02:32:11;;;;;;;1.23;1.13;;;14.70;29.20;;;;;;5077278;28;20220;-74
2021/12/14 02:34:43;;;;;;;1.50;1.40;;;14.70;29.20;;;;;;5077115;28;20205;-74
2021/12/14 02:37:13;;;;;;;1.48;1.38;;;14.60;29.10;;;;;;5077357;28;20231;-74
2021/12/14 02:40:00;;;;;;;1.58;1.48;;;14.60;29.10;;;;;;5077292;28;20219;-74
2021/12/14 02:42:29;;;;;;;1.33;1.23;;;14.60;29.10;;;;;;5077599;28;20215;-74
2021/12/14 02:44:58;;;;;;;1.58;1.48;;;14.60;29.70;;;;;;5077340;28;20270;-74
2021/12/14 02:47:26;;;;;;;1.30;1.20;;;14.60;29.10;;;;;;5077289;28;20219;-74
2021/12/14 02:49:53;;;;;;;1.30;1.20;;;14.60;29.10;;;;;;5076941;28;20289;-74
2021/12/14 02:52:30;;;;;;;1.50;1.40;;;14.60;29.10;;;;;;5077207;28;20232;-74
2021/12/14 02:55:01;;;;;;;1.50;1.40;;;14.60;29.10;;;;;;5077244;28;20223;-74
2021/12/14 02:57:30;;;;;;;1.38;1.27;;;14.60;29.10;;;;;;5076872;28;20205;-74
2021/12/14 02:59:58;;;;;;;1.50;1.40;;;14.60;29.20;;;;;;5077570;28;20204;-75
2021/12/14 03:02:28;;;;;;;1.50;1.40;;;14.60;29.10;;;;;;5076800;28;20591;-74
2021/12/14 03:04:58;;;;;;;1.40;1.30;;;14.60;29.10;;;;;;5076954;28;20255;-74
2021/12/14 03:07:31;;;;;;;1.30;1.20;;;14.60;29.10;;;;;;5076557;28;20236;-74
2021/12/14 03:10:17;;;;;;;1.27;1.17;;;14.60;29.10;;;;;;5076814;28;20266;-74
2021/12/14 03:12:49;;;;;;;1.40;1.30;;;14.60;29.10;;;;;;5076790;28;20232;-74
2021/12/14 03:15:19;;;;;;;1.20;1.10;;;14.60;29.10;;;;;;5077908;28;20205;-74
2021/12/14 03:17:48;;;;;;;1.30;1.20;;;14.60;29.10;;;;;;5080619;28;20203;-74
2021/12/14 03:20:19;;;;;;;1.40;1.30;;;14.60;29.10;;;;;;5080316;28;20614;-74
2021/12/14 03:22:52;;;;;;;1.30;1.20;;;14.60;29.10;;;;;;5079665;28;20192;-73
2021/12/14 03:25:21;;;;;;;1.45;1.33;;;14.60;29.10;;;;;;5079726;28;20211;-74
2021/12/14 03:27:51;;;;;;;1.40;1.30;;;14.60;29.10;;;;;;5080266;28;20214;-74
2021/12/14 03:30:28;;;;;;;1.20;1.10;;;14.60;29.10;;;;;;5080488;28;20463;-74
2021/12/14 03:32:58;;;;;;;1.20;1.10;;;14.60;29.10;;;;;;5080080;28;20254;-74
2021/12/14 03:35:37;;;;;;;1.30;1.20;;;14.50;29.00;;;;;;5080183;28;20215;-74
2021/12/14 03:38:10;;;;;;;1.08;1.00;;;14.50;29.00;;;;;;5080052;28;20196;-74
2021/12/14 03:40:37;;;;;;;1.38;1.27;;;14.50;29.00;;;;;;5080125;28;20302;-74
2021/12/14 03:43:05;;;;;;;1.20;1.10;;;14.60;29.10;;;;;;5080048;28;20212;-74
2021/12/14 03:45:32;;;;;;;1.30;1.20;;;14.50;29.00;;;;;;5080122;28;20614;-74
2021/12/14 03:48:02;;;;;;;1.50;1.40;;;14.50;29.00;;;;;;5079971;28;20472;-74
2021/12/14 03:50:32;;;;;;;1.20;1.10;;;14.50;29.00;;;;;;5079772;28;20201;-75
2021/12/14 03:53:00;;;;;;;1.40;1.30;;;14.50;29.00;;;;;;5079489;28;20231;-74
2021/12/14 03:55:32;;;;;;;1.27;1.17;;;14.50;29.00;;;;;;5079631;28;20207;-74
2021/12/14 03:58:00;;;;;;;1.15;1.05;;;14.50;29.00;;;;;;5079945;28;20223;-74
2021/12/14 04:00:31;;;;;;;1.20;1.10;;;14.50;29.00;;;;;;5079728;28;20621;-74
2021/12/14 04:03:04;;;;;;;1.50;1.40;;;14.50;29.00;;;;;;5079843;28;20219;-74
2021/12/14 04:05:33;;;;;;;1.00;1.00;;;14.50;29.00;;;;;;5079475;28;20219;-74
2021/12/14 04:08:01;;;;;;;1.35;1.25;;;14.50;29.00;;;;;;5079162;28;20638;-74
2021/12/14 04:10:33;;;;;;;1.50;1.40;;;14.50;29.00;;;;;;5079576;28;20208;-74
2021/12/14 04:13:00;;;;;;;1.40;1.30;;;14.50;29.00;;;;;;5079645;28;20235;-74
2021/12/14 04:15:28;;;;;;;1.30;1.20;;;14.50;29.00;;;;;;5079455;28;20582;-74
2021/12/14 04:17:55;;;;;;;1.23;1.15;;;14.50;29.00;;;;;;5079022;28;20204;-74
2021/12/14 04:20:28;;;;;;;1.38;1.27;;;14.50;29.00;;;;;;5078588;28;20196;-74
2021/12/14 04:22:55;;;;;;;1.42;1.33;;;14.50;29.00;;;;;;5079708;28;20486;-74
2021/12/14 04:25:25;;;;;;;1.48;1.38;;;14.50;29.00;;;;;;5079592;28;20208;-74
2021/12/14 04:27:55;;;;;;;1.42;1.33;;;14.50;29.00;;;;;;5079132;28;20212;-74
2021/12/14 04:30:26;;;;;;;1.45;1.35;;;14.40;28.90;;;;;;5078376;28;20212;-74
2021/12/14 04:32:56;;;;;;;1.45;1.35;;;14.40;28.90;;;;;;5078672;28;20323;-74
2021/12/14 04:35:24;;;;;;;1.42;1.33;;;14.50;29.00;;;;;;5078791;28;20204;-73
2021/12/14 04:37:55;;;;;;;1.25;1.15;;;14.40;28.90;;;;;;5079041;28;20212;-74
2021/12/14 04:51:50;;;;;;;1.25;1.10;;;14.50;29.10;;;;;;5078514;28;20208;-74
2021/12/14 04:54:18;;;;;;;1.00;1.00;;;14.40;29.00;;;;;;5078002;28;20200;-74
2021/12/14 04:56:46;;;;;;;1.30;1.20;;;14.40;28.90;;;;;;5078661;28;20204;-74
2021/12/14 04:59:19;;;;;;;1.30;1.20;;;14.40;28.90;;;;;;5078349;28;20270;-74
2021/12/14 05:01:49;;;;;;;1.38;1.27;;;14.40;29.00;;;;;;5078325;28;20200;-74
2021/12/14 05:04:21;;;;;;;1.15;1.05;;;14.40;29.00;;;;;;5077986;28;20204;-74
2021/12/14 05:06:52;;;;;;;1.33;1.23;;;14.40;29.10;;;;;;5078044;28;20262;-74
2021/12/14 05:09:21;;;;;;;1.15;1.05;;;14.40;29.40;;;;;;5078202;28;20458;-74
2021/12/14 05:11:50;;;;;;;1.20;1.10;;;14.40;29.00;;;;;;5078552;28;20234;-74
2021/12/14 05:14:23;;;;;;;1.40;1.30;;;14.40;29.00;;;;;;5077604;28;20288;-74
2021/12/14 05:16:55;;;;;;;1.50;1.40;;;14.40;29.00;;;;;;5078083;28;20204;-74
2021/12/14 05:19:25;;;;;;;1.30;1.20;;;14.40;29.00;;;;;;5077335;28;20211;-74
2021/12/14 05:21:54;;;;;;;1.27;1.17;;;14.40;29.00;;;;;;5077949;28;20200;-74
2021/12/14 05:24:24;;;;;;;1.10;1.10;;;14.30;29.00;;;;;;5077995;28;20218;-74
2021/12/14 05:26:57;;;;;;;1.40;1.30;;;14.40;29.00;;;;;;5077645;28;20303;-74
2021/12/14 05:29:27;;;;;;;1.33;1.23;;;14.30;28.90;;;;;;5077390;28;20644;-74
2021/12/14 05:31:56;;;;;;;1.25;1.15;;;14.30;28.90;;;;;;5077303;28;20246;-74
2021/12/14 05:34:25;;;;;;;1.40;1.30;;;14.30;28.90;;;;;;5077072;28;20215;-74
2021/12/14 05:36:53;;;;;;;1.50;1.40;;;14.40;29.00;;;;;;5076361;28;20234;-74
2021/12/14 05:39:44;;;;;;;1.33;1.23;;;14.30;28.90;;;;;;5076333;28;20223;-74
2021/12/14 05:45:06;;;;;;;1.42;1.33;;;14.30;29.00;;;;;;5076202;28;20633;-74
2021/12/14 05:47:40;;;;;;;1.40;1.30;;;14.30;29.00;;;;;;5076627;28;20208;-74
2021/12/14 05:50:08;;;;;;;1.30;1.20;;;14.30;28.90;;;;;;5075764;28;20205;-74
2021/12/14 05:52:35;;;;;;;1.30;1.20;;;14.30;28.90;;;;;;5076141;28;20611;-74
2021/12/14 05:55:03;;;;;;;1.60;1.50;;;14.30;29.00;;;;;;5075699;28;20212;-74
2021/12/14 05:57:30;;;;;;;1.30;1.20;;;14.30;29.60;;;;;;5075753;28;20572;-74
2021/12/14 05:59:59;;;;;;;1.15;1.13;;;14.30;28.90;;;;;;5075087;28;20506;-74
2021/12/14 06:02:26;;;;;;;1.35;1.25;;;14.30;29.00;;;;;;5075317;28;20196;-74
2021/12/14 06:04:56;;;;;;;1.40;1.30;;;14.30;29.00;;;;;;5075826;28;20207;-74
2021/12/14 06:07:25;;;;;;;1.27;1.17;;;14.30;29.00;;;;;;5075270;28;20246;-74
2021/12/14 06:09:53;;;;;;;1.65;1.38;;;14.30;29.00;;;;;;5074045;28;20615;-74
2021/12/14 06:12:24;;;;;;;1.23;1.20;;;14.30;29.00;;;;;;5074985;28;20224;-74
2021/12/14 06:14:55;;;;;;;1.40;1.30;;;14.20;28.90;;;;;;5074277;28;20741;-74
2021/12/14 06:17:29;;;;;;;1.42;1.33;;;14.20;28.90;;;;;;5074958;28;20516;-74
2021/12/14 06:19:58;;;;;;;1.30;1.20;;;14.30;29.00;;;;;;5074301;28;20568;-74
2021/12/14 06:22:26;;;;;;;1.30;1.20;;;14.20;28.90;;;;;;5074435;28;20200;-74
2021/12/14 06:24:57;;;;;;;1.30;1.20;;;14.20;28.90;;;;;;5074583;28;20216;-74
2021/12/14 06:27:27;;;;;;;1.30;1.20;;;14.20;28.90;;;;;;5075083;28;20484;-74
2021/12/14 06:29:56;;;;;;;1.15;1.10;;;14.20;28.90;;;;;;5074907;28;20197;-74
2021/12/14 06:32:31;;;;;;;1.33;1.23;;;14.30;29.00;;;;;;5074068;28;20232;-73
2021/12/14 06:35:02;;;;;;;1.13;1.02;;;14.20;29.00;;;;;;5074607;28;20204;-74
2021/12/14 06:37:54;;;;;;;1.40;1.30;;;14.20;29.00;;;;;;5074679;28;20200;-74
2021/12/14 06:40:26;;;;;;;1.20;1.10;;;14.20;28.90;;;;;;5074885;28;20582;-74
2021/12/14 06:42:56;;;;;;;1.50;1.40;;;14.20;28.90;;;;;;5074129;28;20204;-74
2021/12/14 06:45:27;;;;;;;1.27;1.20;;;14.20;29.00;;;;;;5074317;28;20211;-74
2021/12/14 06:48:03;;;;;;;1.40;1.30;;;14.20;29.00;;;;;;5074195;28;20254;-74
2021/12/14 06:50:35;;;;;;;1.40;1.30;;;14.20;28.90;;;;;;5076033;28;20203;-74
2021/12/14 06:53:06;;;;;;;1.30;1.20;;;14.20;28.90;;;;;;5077711;28;20231;-74
2021/12/14 06:55:34;;;;;;;1.40;1.30;;;14.20;29.00;;;;;;5078744;28;20209;-74
2021/12/14 06:58:11;;;;;;;1.17;1.17;;;14.20;28.90;;;;;;5079281;28;20219;-73
2021/12/14 07:00:42;;;;;;;1.27;1.23;;;14.20;29.00;;;;;;5077560;28;20211;-74
2021/12/14 07:03:10;;;;;;;1.30;1.20;;;14.20;29.00;;;;;;5078059;28;20271;-74
2021/12/14 07:05:38;;;;;;;1.35;1.20;;;14.10;28.90;;;;;;5077520;28;20201;-74
2021/12/14 07:08:11;;;;;;;1.20;1.10;;;14.10;28.90;;;;;;5077750;28;20660;-73
2021/12/14 07:10:41;;;;;;;1.08;1.08;;;14.20;29.00;;;;;;5077890;28;20211;-74
2021/12/14 07:13:14;;;;;;;1.30;1.20;;;14.10;28.90;;;;;;5078430;28;20231;-74
2021/12/14 07:15:42;;;;;;;1.00;1.00;;;14.10;28.90;;;;;;5078953;28;20216;-74
2021/12/14 07:18:11;;;;;;;1.15;1.13;;;14.20;29.00;;;;;;5078605;28;20213;-73
2021/12/14 07:20:42;;;;;;;1.15;1.08;;;14.10;28.90;;;;;;5078323;28;20204;-74
2021/12/14 07:23:35;;;;;;;1.20;1.10;;;14.10;29.50;;;;;;5078068;28;20262;-74
2021/12/14 07:26:05;;;;;;;1.30;1.20;;;14.20;29.00;;;;;;5068596;28;20681;-74
2021/12/14 07:28:36;;;;;;;1.00;1.00;;;14.10;28.90;;;;;;5078329;28;20231;-73
2021/12/14 07:31:11;;;;;;;1.10;1.10;;;14.20;29.00;;;;;;5078003;28;20200;-74
2021/12/14 07:33:45;;;;;;;1.20;1.10;;;14.10;28.90;;;;;;5058343;28;20629;-74
2021/12/14 07:36:14;;;;;;;1.70;1.20;;;14.10;28.90;;;;;;5058374;28;20212;-74
2021/12/14 07:38:46;;;;;;;1.10;1.10;;;14.10;28.90;;;;;;5058026;28;20275;-74
2021/12/14 07:41:24;;;;;;;1.13;1.02;;;14.10;28.90;;;;;;5057295;28;20205;-74
2021/12/14 07:43:57;;;;;;;1.33;1.10;;;14.10;28.90;;;;;;5057526;28;20197;-74
2021/12/14 07:46:31;;;;;;;1.55;1.10;;;14.10;28.90;;;;;;5058216;28;20630;-74
2021/12/14 07:49:02;;;;;;;1.55;1.35;;;14.10;28.90;;;;;;5058613;28;20212;-74
2021/12/14 07:51:33;;;;;;;1.40;1.00;;;14.10;28.90;;;;;;5057684;28;20592;-74
2021/12/14 07:54:05;;;;;;;1.67;1.23;;;14.10;28.90;;;;;;5057574;28;20233;-74
2021/12/14 07:56:38;;;;;;;0.90;0.90;;;14.10;28.90;;;;;;5057506;28;20204;-74
2021/12/14 07:59:12;;;;;;;1.10;1.00;;;14.10;28.90;;;;;;5060236;28;20217;-74
2021/12/14 08:01:39;;;;;;;1.42;1.13;;;14.10;29.00;;;;;;5075811;28;20204;-74
2021/12/14 08:04:12;;;;;;;3.22;1.20;;;14.10;28.90;;;;;;5076942;28;20204;-74
2021/12/14 08:06:51;;;;;;;1.30;1.20;;;14.10;28.90;;;;;;5076237;28;20206;-74
2021/12/14 08:09:33;;;;;;;1.10;1.10;;;14.10;28.90;;;;;;5076099;28;20595;-74
2021/12/14 08:12:02;;;;;;;1.17;1.08;;;14.00;28.90;;;;;;5075805;28;20584;-75
2021/12/14 08:14:30;;;;;;;1.40;1.30;;;14.10;28.90;;;;;;5075665;28;20624;-74
2021/12/14 08:17:02;;;;;;;1.20;1.10;;;14.10;28.90;;;;;;5075947;28;20196;-74
2021/12/14 08:19:35;;;;;;;1.20;1.10;;;14.00;28.90;;;;;;5076136;28;20342;-75
2021/12/14 08:22:27;;;;;;;1.90;1.20;;;14.10;29.00;;;;;;5075260;28;20205;-74
2021/12/14 08:24:54;;;;;;;1.23;1.13;;;14.00;28.90;;;;;;5075407;28;20214;-74
2021/12/14 08:27:24;;;;;;;1.20;1.10;;;14.00;28.90;;;;;;5075007;28;20211;-74
2021/12/14 08:29:53;;;;;;;1.30;1.20;;;14.00;29.00;;;;;;5075780;28;20204;-74
2021/12/14 08:32:24;;;;;;;1.33;1.23;;;14.00;28.90;;;;;;5074868;28;20204;-74
2021/12/14 08:34:55;;;;;;;0.90;0.90;;;14.00;28.90;;;;;;5074423;28;20691;-74
2021/12/14 08:37:29;;;;;;;1.42;1.25;;;14.00;28.90;;;;;;5074303;28;20644;-74
2021/12/14 08:40:02;;;;;;;2.65;1.50;;;14.00;28.90;;;;;;5075212;28;20215;-74
2021/12/14 08:42:37;;;;;;;1.10;1.00;;;14.00;28.90;;;;;;5074948;28;20215;-74
2021/12/14 08:45:24;;;;;;;1.30;1.20;;;14.00;29.00;;;;;;5074763;28;20254;-74
2021/12/14 08:47:53;;;;;;;1.23;1.02;;;14.00;29.00;;;;;;5073626;28;20563;-74
2021/12/14 08:50:23;;;;;;;1.30;1.20;;;14.00;28.90;;;;;;5074811;28;20204;-74
2021/12/14 08:52:52;;;;;;;1.30;1.17;;;14.00;28.90;;;;;;5074190;28;20490;-74
2021/12/14 08:55:22;;;;;;;1.25;1.10;;;14.00;29.00;;;;;;5072702;28;20227;-74
2021/12/14 08:57:49;;;;;;;2.05;1.10;;;14.00;28.90;;;;;;5073554;28;20204;-74
2021/12/14 09:00:21;;;;;;;1.30;1.20;;;14.00;28.90;;;;;;5074815;28;20213;-74
2021/12/14 09:02:52;;;;;;;1.30;1.20;;;14.00;28.90;;;;;;5074904;28;20219;-74
2021/12/14 09:05:26;;;;;;;1.17;1.13;;;14.00;28.90;;;;;;5075157;28;20313;-74
2021/12/14 09:07:55;;;;;;;1.52;1.40;;;14.00;28.90;;;;;;5074765;28;20270;-74
2021/12/14 09:10:27;;;;;;;1.75;1.30;;;14.00;29.00;;;;;;5075467;28;20214;-74
2021/12/14 09:12:59;;;;;;;1.75;1.20;;;14.00;28.90;;;;;;5074743;28;20223;-74
2021/12/14 09:15:29;;;;;;;1.52;1.35;;;14.00;28.90;;;;;;5074940;28;20292;-74
2021/12/14 09:17:58;;;;;;;2.60;2.20;;;14.00;28.90;;;;;;5074591;28;20207;-74
2021/12/14 09:20:31;;;;;;;5.15;3.42;;;13.90;28.90;;;;;;5075152;28;20636;-74
2021/12/14 09:23:04;;;;;;;3.13;2.70;;;14.00;28.90;;;;;;5074701;28;20195;-74
2021/12/14 09:25:32;;;;;;;4.63;2.92;;;13.90;28.90;;;;;;5055407;28;20205;-75
2021/12/14 09:28:02;;;;;;;3.45;2.95;;;13.90;28.90;;;;;;5055605;28;20757;-74
2021/12/14 09:30:33;;;;;;;5.07;3.33;;;13.90;29.00;;;;;;5054925;28;20212;-74
2021/12/14 09:33:01;;;;;;;3.17;2.72;;;13.90;29.20;;;;;;5054995;28;20264;-74
2021/12/14 09:35:31;;;;;;;4.32;3.05;;;13.90;29.10;;;;;;5054868;28;20266;-74
2021/12/14 09:37:59;;;;;;;4.25;2.75;;;13.90;29.20;;;;;;5054652;28;20204;-74
2021/12/14 09:40:31;;;;;;;3.33;2.80;;;13.90;29.20;;;;;;5054812;28;20209;-74
2021/12/14 09:42:59;;;;;;;3.42;2.80;;;13.90;29.40;;;;;;5054393;28;20600;-74
2021/12/14 09:45:30;;;;;;;3.45;2.83;;;13.90;29.30;;;;;;5054916;28;20204;-74
2021/12/14 09:47:57;;;;;;;2.95;2.33;;;13.90;29.20;;;;;;5054646;28;20209;-74
2021/12/14 09:50:27;;;;;;;2.92;2.63;;;13.90;29.30;;;;;;5070957;28;20505;-74
2021/12/14 09:52:57;;;;;;;2.78;2.30;;;13.90;29.40;;;;;;5054892;28;20208;-74
2021/12/14 09:55:29;;;;;;;2.67;2.45;;;13.90;29.40;;;;;;5055387;28;20205;-74
2021/12/14 09:58:00;;;;;;;3.05;2.40;;;13.90;29.40;;;;;;5054258;28;20208;-74
2021/12/14 10:00:31;;;;;;;2.30;2.10;;;13.90;29.40;;;;;;5053403;28;20213;-74
2021/12/14 10:03:00;;;;;;;18.70;16.70;;;13.90;29.40;;;;;;5073622;28;20200;-74
2021/12/14 10:05:33;;;;;;;24.85;22.25;;;13.90;29.40;;;;;;5073510;28;20227;-74
2021/12/14 10:08:02;;;;;;;18.63;16.67;;;13.90;29.50;;;;;;5072999;28;20235;-74
2021/12/14 10:10:36;;;;;;;17.05;14.88;;;13.90;29.50;;;;;;5074230;28;20478;-74
2021/12/14 10:13:03;;;;;;;15.50;13.18;;;13.90;29.50;;;;;;5074389;28;20204;-74
2021/12/14 10:15:36;;;;;;;14.73;12.35;;;13.90;29.60;;;;;;5074482;28;20204;-74
2021/12/14 10:18:06;;;;;;;12.05;10.82;;;14.00;29.90;;;;;;5073597;28;20490;-74
2021/12/14 10:20:43;;;;;;;11.18;10.07;;;14.00;30.90;;;;;;5053744;28;20509;-74
2021/12/14 10:23:13;;;;;;;10.85;9.35;;;14.00;30.50;;;;;;5053576;28;20219;-68
2021/12/14 10:25:41;;;;;;;11.95;9.25;;;14.10;30.70;;;;;;5057704;28;20205;-61
2021/12/14 10:28:10;;;;;;;13.07;8.52;;;14.20;30.80;;;;;;5058026;28;20236;-62
2021/12/14 10:30:40;;;;;;;9.50;8.38;;;14.20;31.20;;;;;;5072950;28;20200;-61
2021/12/14 10:33:09;;;;;;;8.98;7.80;;;14.20;31.20;;;;;;5077694;28;20587;-61
2021/12/14 10:35:42;;;;;;;8.43;7.05;;;14.20;31.30;;;;;;5078050;28;20204;-62
2021/12/14 10:38:20;;;;;;;9.02;7.15;;;14.30;31.40;;;;;;5077616;28;20219;-62
2021/12/14 10:43:42;;;;;;;10.50;6.38;;;14.30;31.50;;;;;;5076973;28;20192;-62
2021/12/14 10:46:13;;;;;;;10.85;6.00;;;14.30;31.50;;;;;;5056701;28;20647;-61
2021/12/14 10:48:45;;;;;;;6.22;5.50;;;14.40;31.60;;;;;;5056951;28;20205;-61
2021/12/14 10:51:15;;;;;;;6.78;5.18;;;14.40;31.60;;;;;;5057290;28;20212;-63
2021/12/14 10:53:47;;;;;;;8.75;5.40;;;14.40;31.50;;;;;;5071724;28;20216;-63
2021/12/14 10:56:19;;;;;;;5.97;5.38;;;14.40;31.50;;;;;;5077550;28;20345;-61
2021/12/14 10:58:50;;;;;;;7.28;4.80;;;14.40;31.40;;;;;;5078120;28;20219;-62
2021/12/14 11:01:23;;;;;;;5.20;4.57;;;14.50;31.40;;;;;;5077361;28;20204;-62
2021/12/14 11:03:56;;;;;;;7.03;4.55;;;14.50;31.40;;;;;;5077017;28;20201;-62
2021/12/14 11:06:28;;;;;;;5.47;4.18;;;14.50;31.40;;;;;;5076831;28;20208;-62
2021/12/14 11:09:39;;;;;;;5.57;4.25;;;14.50;31.40;;;;;;5076592;28;20232;-62
2021/12/14 11:11:51;;;;;;;6.32;4.20;;;14.60;31.40;;;;;;5075200;28;20728;-62
2021/12/14 11:14:22;;;;;;;6.70;4.00;;;14.60;31.30;;;;;;5077104;28;20234;-61
2021/12/14 11:19:40;;;;;;;8.48;4.22;;;14.60;31.20;;;;;;5076928;28;20199;-62
2021/12/14 11:22:16;;;;;;;5.90;3.38;;;14.60;31.20;;;;;;5076597;28;20285;-62
2021/12/14 11:24:49;;;;;;;3.95;3.53;;;14.60;31.10;;;;;;5075329;28;20230;-62
2021/12/14 11:27:19;;;;;;;5.85;3.40;;;14.70;31.30;;;;;;5076971;28;20204;-62
2021/12/14 11:29:50;;;;;;;4.20;3.25;;;14.70;31.20;;;;;;5076817;28;20580;-62
2021/12/14 11:32:19;;;;;;;4.10;3.08;;;14.70;31.20;;;;;;5075291;28;20200;-62
2021/12/14 11:34:48;;;;;;;3.28;2.88;;;14.70;31.10;;;;;;5076238;28;20641;-62
2021/12/14 11:37:22;;;;;;;4.57;3.20;;;14.70;31.00;;;;;;5075146;28;20517;-63
2021/12/14 11:39:53;;;;;;;4.20;3.08;;;14.70;31.00;;;;;;5075923;28;20211;-62
2021/12/14 11:42:24;;;;;;;3.63;2.88;;;14.70;31.00;;;;;;5076225;28;20583;-62
2021/12/14 11:44:55;;;;;;;3.03;2.60;;;14.70;31.00;;;;;;5076139;28;20203;-62
2021/12/14 11:47:41;;;;;;;3.13;2.80;;;14.70;30.90;;;;;;5075851;28;20505;-62
2021/12/14 11:50:20;;;;;;;3.47;2.60;;;14.70;30.90;;;;;;5074771;28;20214;-61
2021/12/14 11:52:51;;;;;;;3.10;2.45;;;14.80;30.90;;;;;;5075398;28;20204;-62
2021/12/14 11:55:28;;;;;;;4.22;2.50;;;14.80;30.90;;;;;;5076144;28;20236;-62
2021/12/14 11:58:10;;;;;;;2.97;2.72;;;14.80;30.80;;;;;;5076174;28;20676;-62
2021/12/14 12:00:40;;;;;;;3.88;2.65;;;14.80;30.80;;;;;;5075875;28;20278;-62
2021/12/14 12:03:35;;;;;;;2.45;2.20;;;14.80;30.80;;;;;;5075579;28;20204;-62
2021/12/14 12:06:09;;;;;;;2.60;2.40;;;14.80;30.60;;;;;;5073530;28;20204;-62
2021/12/14 12:11:35;;;;;;;2.30;2.10;;;14.80;30.70;;;;;;5075050;28;20199;-62
2021/12/14 12:14:16;;;;;;;2.50;2.08;;;14.80;30.70;;;;;;5075561;28;20254;-63
2021/12/14 12:16:43;;;;;;;2.45;2.20;;;14.80;30.60;;;;;;5074817;28;20200;-62
2021/12/14 12:19:13;;;;;;;2.70;2.50;;;14.80;30.60;;;;;;5074999;28;20771;-62
2021/12/14 12:21:42;;;;;;;3.28;2.40;;;14.80;30.60;;;;;;5075706;28;20265;-63
2021/12/14 12:24:32;;;;;;;2.20;2.00;;;14.80;30.60;;;;;;5075214;28;20204;-62
2021/12/14 12:27:36;;;;;;;2.40;2.20;;;14.80;30.40;;;;;;5075507;28;20204;-62
2021/12/14 12:30:21;;;;;;;2.72;2.22;;;14.80;30.50;;;;;;5075149;28;20618;-61
2021/12/14 12:32:48;;;;;;;2.30;2.00;;;14.80;30.50;;;;;;5074982;28;20193;-62
2021/12/14 12:35:29;;;;;;;2.40;2.20;;;14.80;30.50;;;;;;5075807;28;20224;-62
2021/12/14 12:37:59;;;;;;;2.53;1.98;;;14.80;30.40;;;;;;5075029;28;20208;-62
2021/12/14 12:40:48;;;;;;;2.05;1.85;;;14.80;30.40;;;;;;5075177;28;20205;-63
2021/12/14 12:43:20;;;;;;;3.33;1.70;;;14.80;30.40;;;;;;5074781;28;20196;-62
2021/12/14 12:45:59;;;;;;;2.00;1.80;;;14.80;30.40;;;;;;5075090;28;20672;-62
2021/12/14 12:49:02;;;;;;;2.55;1.90;;;14.80;30.30;;;;;;5073737;28;20239;-62
2021/12/14 12:51:56;;;;;;;2.03;1.92;;;14.80;30.30;;;;;;5075201;28;20204;-62
2021/12/14 12:54:29;;;;;;;1.88;1.77;;;14.80;30.30;;;;;;5075149;28;20251;-62
2021/12/14 12:57:29;;;;;;;3.00;1.80;;;14.80;30.40;;;;;;5075140;28;20197;-62
2021/12/14 13:00:09;;;;;;;2.00;1.83;;;14.80;30.30;;;;;;5075075;28;20192;-62
2021/12/14 13:02:38;;;;;;;2.17;1.80;;;14.80;30.30;;;;;;5075399;28;20744;-62
2021/12/14 13:05:09;;;;;;;2.03;1.80;;;14.80;30.30;;;;;;5074642;28;20201;-62
2021/12/14 13:07:41;;;;;;;1.73;1.63;;;14.80;30.30;;;;;;5074348;28;20241;-62
2021/12/14 13:10:24;;;;;;;2.00;1.90;;;14.80;30.30;;;;;;5074273;28;20208;-62
2021/12/14 13:12:56;;;;;;;2.03;1.50;;;14.80;30.20;;;;;;5074123;28;20208;-62
2021/12/14 13:15:58;;;;;;;1.83;1.55;;;14.80;30.30;;;;;;5073510;28;20224;-63
2021/12/14 13:18:41;;;;;;;2.45;1.48;;;14.80;30.20;;;;;;5074334;28;20207;-63
2021/12/14 13:21:23;;;;;;;2.75;1.73;;;14.80;30.10;;;;;;5074626;28;20504;-62
2021/12/14 13:24:05;;;;;;;1.73;1.63;;;14.80;30.10;;;;;;5074527;28;20576;-62
2021/12/14 13:26:39;;;;;;;1.98;1.58;;;14.80;30.00;;;;;;5074813;28;20207;-62
2021/12/14 13:29:17;;;;;;;2.15;1.77;;;14.80;30.00;;;;;;5074446;28;20215;-62
2021/12/14 13:31:47;;;;;;;1.83;1.67;;;14.80;30.00;;;;;;5073709;28;20211;-62
2021/12/14 13:34:17;;;;;;;1.63;1.50;;;14.80;30.00;;;;;;5073794;28;20734;-62
2021/12/14 13:36:46;;;;;;;1.52;1.42;;;14.80;30.00;;;;;;5073133;28;20204;-62